.
WxDataArchive / Data Records for 2012-07-21
2012-07-20 July 2012 2012-07-22

Data Records for Saturday, 21 July 2012

Time	Temp	Chill	HIndex	Humid	Dewpt	 Wind 	HiWind	WindDir	Rain 	Barom 
-----	----	-----	------	-----	-----	------	------	-------	-----	----- 
00:00	65.3	65.3	65.3	79	58.6	0	0	---	0.00	30.034 
00:05	65.2	65.2	65.2	80	58.9	0	0	---	0.00	30.034 
00:10	65.2	65.2	65.2	80	58.9	0	0	---	0.00	30.034 
00:15	65.0	65.0	65.0	81	59.0	0	0	---	0.00	30.040 
00:20	64.8	64.8	64.8	81	58.8	0	0	---	0.00	30.040 
00:25	64.7	64.7	64.7	82	59.1	0	0	---	0.00	30.040 
00:30	64.5	64.5	64.5	82	58.9	0	0	---	0.00	30.046 
00:35	64.3	64.3	64.3	83	59.0	0	0	---	0.00	30.046 
00:40	64.3	64.3	64.3	83	59.0	0	0	---	0.00	30.046 
00:45	64.2	64.2	64.2	84	59.3	0	0	---	0.00	30.049 
00:50	64.0	64.0	64.0	84	59.1	0	0	---	0.00	30.049 
00:55	63.9	63.9	63.9	84	59.0	0	0	---	0.00	30.049 
01:00	63.5	63.5	63.5	85	58.9	0	0	---	0.00	30.049 
01:05	63.4	63.4	63.4	85	58.8	0	0	---	0.00	30.049 
01:10	63.2	63.2	63.2	85	58.6	0	0	---	0.00	30.049 
01:15	63.2	63.2	63.2	85	58.6	0	0	---	0.00	30.050 
01:20	63.1	63.1	63.1	86	58.8	0	0	---	0.00	30.050 
01:25	62.9	62.9	62.9	86	58.6	0	0	---	0.00	30.050 
01:30	62.7	62.7	62.7	86	58.4	0	0	---	0.00	30.049 
01:35	62.7	62.7	62.7	87	58.8	0	0	---	0.00	30.049 
01:40	62.6	62.6	62.6	87	58.7	0	0	---	0.00	30.049 
01:45	62.6	62.6	62.6	88	59.0	0	0	---	0.00	30.048 
01:50	62.4	62.4	62.4	88	58.8	0	0	---	0.00	30.048 
01:55	62.4	62.4	62.4	88	58.8	0	0	---	0.00	30.048 
02:00	62.3	62.3	62.3	88	58.7	0	0	---	0.00	30.049 
02:05	62.3	62.3	62.3	88	58.7	0	0	---	0.00	30.049 
02:10	62.1	62.1	62.1	88	58.5	0	0	---	0.00	30.049 
02:15	62.1	62.1	62.1	89	58.8	0	0	---	0.00	30.044 
02:20	62.0	62.0	62.0	89	58.7	0	0	---	0.00	30.044 
02:25	61.8	61.8	61.8	89	58.5	0	0	---	0.00	30.044 
02:30	61.8	61.8	61.8	89	58.5	0	0	---	0.00	30.046 
02:35	61.6	61.6	61.6	89	58.3	0	0	---	0.00	30.046 
02:40	61.5	61.5	61.5	89	58.2	0	0	---	0.00	30.046 
02:45	61.3	61.3	61.3	90	58.3	0	0	---	0.00	30.042 
02:50	61.3	61.3	61.3	90	58.3	0	0	---	0.00	30.042 
02:55	61.3	61.3	61.3	90	58.3	0	0	---	0.00	30.042 
03:00	61.2	61.2	61.2	90	58.2	0	0	---	0.00	30.036 
03:05	61.2	61.2	61.2	91	58.5	0	0	---	0.00	30.036 
03:10	61.0	61.0	61.0	91	58.4	0	0	---	0.00	30.036 
03:15	60.9	60.9	60.9	91	58.3	0	0	---	0.00	30.043 
03:20	60.9	60.9	60.9	91	58.3	0	0	---	0.00	30.043 
03:25	60.9	60.9	60.9	91	58.3	0	0	---	0.00	30.043 
03:30	60.7	60.7	60.7	91	58.1	0	0	---	0.00	30.045 
03:35	60.5	60.5	60.5	91	57.9	0	0	---	0.00	30.045 
03:40	60.5	60.5	60.5	92	58.2	0	0	---	0.00	30.045 
03:45	60.5	60.5	60.5	92	58.2	0	0	---	0.00	30.047 
03:50	60.5	60.5	60.5	92	58.2	0	0	---	0.00	30.047 
03:55	60.5	60.5	60.5	92	58.2	0	0	---	0.00	30.047 
04:00	60.4	60.4	60.4	92	58.1	0	0	---	0.00	30.045 
04:05	60.4	60.4	60.4	92	58.1	0	0	---	0.00	30.045 
04:10	60.2	60.2	60.2	92	57.9	0	0	---	0.00	30.045 
04:15	60.1	60.1	60.1	92	57.8	0	0	---	0.00	30.040 
04:20	60.1	60.1	60.1	92	57.8	0	0	---	0.00	30.040 
04:25	59.9	59.9	59.9	92	57.6	0	0	---	0.00	30.040 
04:30	59.8	59.8	59.8	92	57.5	0	0	---	0.00	30.041 
04:35	59.8	59.8	59.8	92	57.5	0	0	---	0.00	30.041 
04:40	59.6	59.6	59.6	92	57.3	0	0	---	0.00	30.041 
04:45	59.5	59.5	59.5	92	57.2	0	0	---	0.00	30.041 
04:50	59.3	59.3	59.3	92	57.0	0	0	---	0.00	30.041 
04:55	59.3	59.3	59.3	92	57.0	0	0	---	0.00	30.041 
05:00	59.3	59.3	59.3	92	57.0	0	0	---	0.00	30.048 
05:05	59.3	59.3	59.3	92	57.0	0	0	---	0.00	30.048 
05:10	59.3	59.3	59.3	93	57.3	0	0	---	0.00	30.048 
05:15	59.3	59.3	59.3	93	57.3	0	0	---	0.00	30.051 
05:20	59.5	59.5	59.5	93	57.5	0	0	---	0.00	30.051 
05:25	59.5	59.5	59.5	93	57.5	0	0	---	0.00	30.051 
05:30	59.5	59.5	59.5	93	57.5	0	0	---	0.00	30.061 
05:35	59.3	59.3	59.3	93	57.3	0	0	---	0.00	30.061 
05:40	59.3	59.3	59.3	93	57.3	0	0	---	0.00	30.061 
05:45	59.2	59.2	59.2	93	57.2	0	0	---	0.00	30.051 
05:50	59.0	59.0	59.0	93	57.0	0	0	---	0.00	30.051 
05:55	59.0	59.0	59.0	93	57.0	0	0	---	0.00	30.051 
06:00	59.0	59.0	59.0	93	57.0	0	0	---	0.00	30.054 
06:05	59.0	59.0	59.0	93	57.0	0	0	---	0.00	30.054 
06:10	59.0	59.0	59.0	93	57.0	0	0	---	0.00	30.054 
06:15	59.2	59.2	59.2	93	57.2	0	0	---	0.00	30.066 
06:20	59.2	59.2	59.2	94	57.5	0	0	---	0.00	30.066 
06:25	59.2	59.2	59.2	93	57.2	0	0	---	0.00	30.066 
06:30	59.2	59.2	59.2	94	57.5	0	0	---	0.00	30.080 
06:35	59.2	59.2	59.2	94	57.5	0	0	---	0.00	30.080 
06:40	59.2	59.2	59.2	94	57.5	0	0	---	0.00	30.080 
06:45	59.2	59.2	59.2	94	57.5	0	0	---	0.00	30.073 
06:50	59.2	59.2	59.2	94	57.5	0	0	---	0.00	30.073 
06:55	59.0	59.0	59.0	94	57.3	0	0	---	0.00	30.073 
07:00	59.2	59.2	59.2	94	57.5	0	0	---	0.00	30.065 
07:05	59.2	59.2	59.2	94	57.5	0	0	---	0.00	30.065 
07:10	59.3	59.3	59.3	94	57.6	0	0	---	0.00	30.065 
07:15	59.3	59.3	59.3	94	57.6	0	0	---	0.00	30.061 
07:20	59.6	59.6	59.6	94	57.9	0	0	---	0.00	30.061 
07:25	59.9	59.9	59.9	94	58.2	0	0	---	0.00	30.061 
07:30	60.4	60.4	60.4	94	58.7	0	0	---	0.00	30.062 
07:35	60.7	60.7	60.7	94	59.0	0	0	---	0.00	30.062 
07:40	61.2	61.2	61.2	95	59.8	0	0	---	0.00	30.062 
07:45	61.6	61.6	61.6	94	59.9	0	0	---	0.00	30.065 
07:50	62.1	62.1	62.1	94	60.3	0	0	---	0.00	30.065 
07:55	62.7	62.7	62.7	94	60.9	0	0	---	0.00	30.065 
08:00	63.2	63.2	63.2	94	61.4	0	0	---	0.00	30.063 
08:05	63.9	63.9	63.9	93	61.8	0	0	---	0.00	30.063 
08:10	64.5	64.5	64.5	92	62.1	0	1	90	0.00	30.063 
08:15	65.0	65.0	65.0	90	62.0	0	1	90	0.00	30.065 
08:20	65.6	65.6	65.6	87	61.6	0	1	90	0.00	30.065 
08:25	66.4	66.4	66.4	84	61.4	0	2	202	0.00	30.065 
08:30	67.1	67.1	67.1	81	61.1	0	1	202	0.00	30.079 
08:35	67.9	67.9	67.9	79	61.1	0	1	202	0.00	30.079 
08:40	68.6	68.6	68.6	76	60.7	1	3	202	0.00	30.079 
08:45	68.9	68.9	68.9	74	60.3	0	2	248	0.00	30.081 
08:50	69.4	69.4	69.4	73	60.4	0	2	248	0.00	30.081 
08:55	70.1	70.1	70.1	72	60.6	0	1	248	0.00	30.081 
09:00	70.6	70.6	70.6	71	60.7	0	2	248	0.00	30.085 
09:05	71.1	71.1	71.1	70	60.8	0	1	248	0.00	30.085 
09:10	71.6	71.6	71.6	68	60.5	0	2	248	0.00	30.085 
09:15	72.0	72.0	72.0	67	60.4	0	2	292	0.00	30.095 
09:20	72.3	72.3	72.3	65	59.9	1	2	292	0.00	30.095 
09:25	72.8	72.8	72.8	65	60.3	1	3	292	0.00	30.095 
09:30	73.0	73.0	73.0	63	59.6	0	1	292	0.00	30.094 
09:35	73.2	73.2	73.2	63	59.8	1	3	292	0.00	30.094 
09:40	73.5	73.5	73.5	61	59.2	1	2	292	0.00	30.094 
09:45	73.9	73.9	73.9	61	59.6	0	2	45	0.00	30.095 
09:50	74.2	74.2	74.2	60	59.4	0	1	45	0.00	30.095 
09:55	74.6	74.6	74.6	58	58.8	0	2	45	0.00	30.095 
10:00	74.9	74.9	74.9	60	60.1	1	3	292	0.00	30.098 
10:05	75.4	75.4	77.7	56	58.6	1	3	292	0.00	30.098 
10:10	75.6	75.6	77.8	56	58.8	1	2	292	0.00	30.098 
10:15	76.0	76.0	78.1	54	58.1	1	3	225	0.00	30.099 
10:20	76.3	76.3	78.2	52	57.4	1	3	225	0.00	30.099 
10:25	76.5	76.5	78.4	54	58.6	1	2	270	0.00	30.099 
10:30	77.0	77.0	78.7	53	58.5	0	2	270	0.00	30.094 
10:35	77.4	77.4	78.9	51	57.8	1	3	270	0.00	30.094 
10:40	77.7	77.7	79.0	50	57.6	0	2	270	0.00	30.094 
10:45	77.6	77.6	79.0	51	58.0	1	3	270	0.00	30.090 
10:50	77.7	77.7	79.0	50	57.6	1	3	270	0.00	30.090 
10:55	77.6	77.6	79.0	51	58.0	1	2	270	0.00	30.090 
11:00	77.4	77.4	78.9	52	58.4	0	2	270	0.00	30.093 
11:05	77.9	77.9	79.2	50	57.7	0	2	270	0.00	30.093 
11:10	78.8	78.8	79.8	50	58.6	0	2	270	0.00	30.093 
11:15	79.2	79.2	79.9	47	57.2	0	2	270	0.00	30.092 
11:20	79.0	79.0	79.7	46	56.4	1	3	270	0.00	30.092 
11:25	79.0	79.0	79.7	46	56.4	0	1	270	0.00	30.092 
11:30	79.8	79.8	80.3	46	57.2	1	4	270	0.00	30.093 
11:35	79.9	79.9	80.5	48	58.4	1	4	90	0.00	30.093 
11:40	79.8	79.8	80.3	46	57.2	1	2	90	0.00	30.093 
11:45	79.8	79.8	80.3	46	57.2	1	4	315	0.00	30.093 
11:50	79.6	79.6	80.1	46	57.0	1	4	292	0.00	30.093 
11:55	79.8	79.8	80.3	46	57.2	1	4	292	0.00	30.093 
12:00	80.3	80.3	80.5	44	56.4	1	3	292	0.00	30.094 
12:05	80.7	80.7	80.7	43	56.1	1	2	270	0.00	30.094 
12:10	81.2	81.2	81.1	43	56.5	1	3	270	0.00	30.094 
12:15	81.8	81.8	81.9	45	58.4	1	3	45	0.00	30.089 
12:20	82.0	82.0	81.8	43	57.3	1	4	68	0.00	30.089 
12:25	82.2	82.2	82.1	44	58.1	1	3	68	0.00	30.089 
12:30	81.8	81.8	81.6	43	57.1	1	3	338	0.00	30.086 
12:35	82.0	82.0	81.7	42	56.6	0	2	68	0.00	30.086 
12:40	82.6	82.6	82.1	41	56.5	1	2	68	0.00	30.086 
12:45	82.6	82.6	82.0	40	55.8	1	5	90	0.00	30.078 
12:50	82.4	82.4	81.7	39	54.9	1	4	90	0.00	30.078 
12:55	82.4	82.4	81.9	41	56.3	0	2	90	0.00	30.078 
13:00	83.2	83.2	82.8	42	57.7	1	4	90	0.00	30.081 
13:05	83.2	83.2	82.8	42	57.7	1	4	90	0.00	30.081 
13:10	83.2	83.2	82.1	37	54.2	1	3	90	0.00	30.081 
13:15	83.0	83.0	82.5	41	56.8	0	2	338	0.00	30.079 
13:20	82.6	82.6	82.1	41	56.5	1	4	338	0.00	30.079 
13:25	82.8	82.8	82.0	39	55.3	0	2	292	0.00	30.079 
13:30	83.4	83.4	82.7	40	56.5	1	5	90	0.00	30.068 
13:35	83.6	83.6	83.0	41	57.4	1	4	90	0.00	30.068 
13:40	83.8	83.8	82.9	39	56.2	1	5	90	0.00	30.068 
13:45	84.0	84.0	82.7	36	54.1	1	4	90	0.00	30.061 
13:50	84.0	84.0	83.0	38	55.6	1	3	90	0.00	30.061 
13:55	84.3	84.3	83.3	38	55.9	1	3	90	0.00	30.061 
14:00	84.7	84.7	83.7	38	56.2	1	4	90	0.00	30.062 
14:05	84.7	84.7	83.7	38	56.2	2	4	112	0.00	30.062 
14:10	85.1	85.1	83.9	37	55.9	1	4	112	0.00	30.062 
14:15	85.1	85.1	83.8	36	55.1	1	3	112	0.00	30.073 
14:20	84.9	84.9	83.6	36	54.9	1	3	112	0.00	30.073 
14:25	84.9	84.9	83.9	38	56.4	1	3	112	0.00	30.073 
14:30	84.7	84.7	83.8	39	57.0	2	4	112	0.00	30.067 
14:35	84.9	84.9	83.6	36	54.9	1	3	270	0.00	30.067 
14:40	84.7	84.7	83.4	36	54.8	3	4	270	0.00	30.067 
14:45	84.3	84.3	83.0	36	54.4	2	4	315	0.00	30.070 
14:50	84.5	84.5	83.0	35	53.8	0	3	292	0.00	30.070 
14:55	85.1	85.1	83.8	36	55.1	1	2	292	0.00	30.070 
15:00	85.5	85.5	84.3	37	56.2	0	2	292	0.00	30.060 
15:05	85.5	85.5	84.0	35	54.7	0	1	292	0.00	30.060 
15:10	85.1	85.1	83.8	36	55.1	1	3	292	0.00	30.060 
15:15	85.1	85.1	83.6	35	54.3	0	1	292	0.00	30.054 
15:20	85.3	85.3	83.8	35	54.5	2	5	90	0.00	30.054 
15:25	85.1	85.1	84.1	38	56.6	1	4	90	0.00	30.054 
15:30	85.3	85.3	84.3	38	56.8	1	2	90	0.00	30.051 
15:35	85.7	85.7	84.2	35	54.9	2	4	90	0.00	30.051 
15:40	85.9	85.9	84.2	34	54.2	1	4	270	0.00	30.051 
15:45	85.7	85.7	84.4	36	55.6	1	3	270	0.00	30.051 
15:50	85.7	85.7	84.2	35	54.9	1	3	338	0.00	30.051 
15:55	85.9	85.9	84.2	34	54.2	1	3	338	0.00	30.051 
16:00	85.7	85.7	84.2	35	54.9	2	4	270	0.00	30.049 
16:05	85.5	85.5	84.0	35	54.7	1	4	270	0.00	30.049 
16:10	85.5	85.5	84.0	35	54.7	1	3	270	0.00	30.049 
16:15	85.3	85.3	84.1	37	56.0	0	1	270	0.00	30.046 
16:20	85.1	85.1	83.8	36	55.1	2	4	270	0.00	30.046 
16:25	84.9	84.9	83.6	36	54.9	0	2	270	0.00	30.046 
16:30	84.7	84.7	83.5	37	55.5	0	3	270	0.00	30.046 
16:35	84.9	84.9	83.7	37	55.7	0	1	270	0.00	30.046 
16:40	84.7	84.7	83.4	36	54.8	1	3	292	0.00	30.046 
16:45	84.3	84.3	83.3	38	55.9	1	3	292	0.00	30.045 
16:50	84.0	84.0	83.1	39	56.3	1	3	292	0.00	30.045 
16:55	84.0	84.0	83.0	38	55.6	1	3	292	0.00	30.045 
17:00	84.0	84.0	83.3	40	57.0	0	2	292	0.00	30.045 
17:05	83.8	83.8	82.9	39	56.2	1	2	292	0.00	30.045 
17:10	83.6	83.6	82.8	39	56.0	1	3	292	0.00	30.045 
17:15	83.4	83.4	82.6	39	55.8	1	3	292	0.00	30.044 
17:20	83.2	83.2	82.7	41	57.0	1	3	292	0.00	30.044 
17:25	83.0	83.0	82.6	42	57.5	1	3	292	0.00	30.044 
17:30	83.0	83.0	82.5	41	56.8	1	2	292	0.00	30.038 
17:35	82.8	82.8	82.2	40	56.0	1	3	292	0.00	30.038 
17:40	82.8	82.8	82.2	40	56.0	1	4	292	0.00	30.038 
17:45	82.8	82.8	82.4	42	57.3	0	2	292	0.00	30.036 
17:50	82.6	82.6	82.1	41	56.5	0	3	292	0.00	30.036 
17:55	82.6	82.6	82.1	41	56.5	0	2	292	0.00	30.036 
18:00	82.6	82.6	82.2	42	57.2	0	2	292	0.00	30.032 
18:05	82.4	82.4	82.0	42	57.0	0	2	292	0.00	30.032 
18:10	82.2	82.2	81.9	42	56.8	1	3	292	0.00	30.032 
18:15	82.2	82.2	81.9	42	56.8	1	2	292	0.00	30.032 
18:20	82.0	82.0	81.8	43	57.3	0	2	292	0.00	30.032 
18:25	82.0	82.0	81.7	42	56.6	0	3	292	0.00	30.032 
18:30	81.8	81.8	81.5	42	56.4	0	1	292	0.00	30.031 
18:35	81.8	81.8	81.6	43	57.1	0	1	292	0.00	30.031 
18:40	81.8	81.8	81.5	42	56.4	0	2	292	0.00	30.031 
18:45	81.8	81.8	81.6	43	57.1	0	2	292	0.00	30.034 
18:50	81.8	81.8	81.6	43	57.1	1	3	292	0.00	30.034 
18:55	81.8	81.8	81.5	42	56.4	1	3	292	0.00	30.034 
19:00	81.8	81.8	81.6	43	57.1	0	1	292	0.00	30.033 
19:05	81.6	81.6	81.3	42	56.3	0	1	292	0.00	30.033 
19:10	81.6	81.6	81.3	42	56.3	1	3	292	0.00	30.033 
19:15	81.6	81.6	81.5	43	56.9	1	2	292	0.00	30.028 
19:20	81.4	81.4	81.2	42	56.1	1	2	292	0.00	30.028 
19:25	81.4	81.4	81.3	43	56.7	0	2	292	0.00	30.028 
19:30	81.4	81.4	81.3	43	56.7	0	1	292	0.00	30.028 
19:35	81.4	81.4	81.3	43	56.7	0	1	292	0.00	30.028 
19:40	81.4	81.4	81.3	43	56.7	0	1	292	0.00	30.028 
19:45	81.4	81.4	81.4	44	57.4	0	2	292	0.00	30.026 
19:50	81.2	81.2	81.3	45	57.8	0	2	292	0.00	30.026 
19:55	81.2	81.2	81.5	46	58.4	0	1	292	0.00	30.026 
20:00	81.2	81.2	81.5	46	58.4	0	1	292	0.00	30.024 
20:05	81.2	81.2	81.5	46	58.4	0	2	292	0.00	30.024 
20:10	81.1	81.1	81.5	47	58.9	0	1	292	0.00	30.024 
20:15	80.9	80.9	81.5	49	59.9	1	2	292	0.00	30.022 
20:20	80.7	80.7	81.3	49	59.7	0	2	292	0.00	30.022 
20:25	80.3	80.3	81.1	50	59.9	0	2	292	0.00	30.022 
20:30	80.1	80.1	81.0	51	60.3	0	1	292	0.00	30.022 
20:35	79.8	79.8	80.8	52	60.6	0	1	292	0.00	30.022 
20:40	79.6	79.6	80.6	52	60.4	0	0	---	0.00	30.022 
20:45	79.4	79.4	80.5	53	60.8	0	0	---	0.00	30.014 
20:50	79.0	79.0	80.2	53	60.4	0	0	---	0.00	30.014 
20:55	78.8	78.8	80.1	54	60.7	0	0	---	0.00	30.014 
21:00	78.5	78.5	79.8	54	60.4	0	0	---	0.00	30.020 
21:05	78.1	78.1	79.5	55	60.6	0	0	---	0.00	30.020 
21:10	77.7	77.7	79.2	55	60.2	0	0	---	0.00	30.020 
21:15	77.6	77.6	79.2	57	61.1	0	0	---	0.00	30.021 
21:20	77.2	77.2	78.9	57	60.8	0	0	---	0.00	30.021 
21:25	76.8	76.8	78.6	58	60.9	0	0	---	0.00	30.021 
21:30	76.7	76.7	78.5	59	61.3	0	0	---	0.00	30.023 
21:35	76.3	76.3	78.2	60	61.4	0	0	---	0.00	30.023 
21:40	75.8	75.8	77.8	61	61.4	0	0	---	0.00	30.023 
21:45	75.4	75.4	77.5	62	61.5	0	0	---	0.00	30.028 
21:50	75.1	75.1	77.3	63	61.6	0	0	---	0.00	30.028 
21:55	74.7	74.7	74.7	63	61.2	0	0	---	0.00	30.028 
22:00	74.6	74.6	74.6	64	61.6	0	0	---	0.00	30.030 
22:05	74.2	74.2	74.2	64	61.2	0	0	---	0.00	30.030 
22:10	73.9	73.9	73.9	65	61.4	0	0	---	0.00	30.030 
22:15	73.7	73.7	73.7	66	61.6	0	0	---	0.00	30.029 
22:20	73.5	73.5	73.5	67	61.9	0	0	---	0.00	30.029 
22:25	73.3	73.3	73.3	68	62.1	0	0	---	0.00	30.029 
22:30	73.3	73.3	73.3	69	62.5	0	0	---	0.00	30.030 
22:35	73.2	73.2	73.2	70	62.8	0	0	---	0.00	30.030 
22:40	73.0	73.0	73.0	70	62.6	0	0	---	0.00	30.030 
22:45	73.0	73.0	73.0	71	63.0	0	0	---	0.00	30.033 
22:50	73.0	73.0	73.0	71	63.0	0	0	---	0.00	30.033 
22:55	73.0	73.0	73.0	71	63.0	0	0	---	0.00	30.033 
23:00	72.8	72.8	72.8	71	62.8	0	0	---	0.00	30.035 
23:05	72.8	72.8	72.8	70	62.4	0	0	---	0.00	30.035 
23:10	72.8	72.8	72.8	71	62.8	0	0	---	0.00	30.035 
23:15	73.0	73.0	73.0	72	63.4	0	0	---	0.00	30.026 
23:20	73.0	73.0	73.0	72	63.4	0	0	---	0.00	30.026 
23:25	73.0	73.0	73.0	71	63.0	0	0	---	0.00	30.026 
23:30	73.0	73.0	73.0	71	63.0	0	0	---	0.00	30.024 
23:35	73.0	73.0	73.0	71	63.0	0	0	---	0.00	30.024 
23:40	73.0	73.0	73.0	71	63.0	0	0	---	0.00	30.024 
23:45	73.0	73.0	73.0	71	63.0	0	0	---	0.00	30.023 
23:50	73.0	73.0	73.0	71	63.0	0	0	---	0.00	30.023 
23:55	73.0	73.0	73.0	71	63.0	0	0	---	0.00	30.023 

CoCoRaHS
IN-AL-39
A2 Web Hosting
Creative Commons License
GoDaddy
search engine by freefind advanced

loaded 2018-11-15 14:05:17 • last modified 2010-11-18 10:43:29
Privacy PolicyDisclaimer
• wx.awcolley.com is powered by PmWiki v.2002016 •
• all content (unless otherwise noted) © 2018 A W Colley